M I D A S
Marine Information and Data Acquisition System
Tripno 1126 of the Zeeleeuw from 2006-06-07 04:01:00 to 2006-06-07 13:57:39
Back to CruiseResearch ActivitiesStationsMapUnderway DataData graphs

EquipmentUnitsComment
TimeDGPSUTC
LatitudeDGPSDM.mWGS84
LongitudeDGPSDM.mWGS84
HeadingGyrodeg 
SOGDGPSknotsSpeed over ground
COGDGPSdegCourse over ground
DepthEcho soundermeters200 kHz
Missing or incorrect values are displayed as -999
Navigation data collected by the RV Zeeleeuw from 2006-06-07 04:00:49 to 2006-06-07 14:08:24
Time Latitude Longitude Heading SOG COG Depth
2006-06-07 04:01:55 51°13.622 2°56.019 110.1 3.9 290 -999
2006-06-07 04:02:55 51°13.65 2°55.902 117.7 5.5 294 -999
2006-06-07 04:03:55 51°13.687 2°55.781 116 4.4 294 9.7
2006-06-07 04:04:53 51°13.702 2°55.726 86.3 0.6 49 12.3
2006-06-07 04:05:54 51°13.713 2°55.746 29.5 1.1 205 11
2006-06-07 04:06:55 51°13.721 2°55.737 347.2 2.9 343 -999
2006-06-07 04:07:53 51°13.799 2°55.666 332.9 8 329 9.4
2006-06-07 04:08:53 51°13.939 2°55.553 338.7 10 334 9.7
2006-06-07 04:09:53 51°14.086 2°55.453 340.1 8.9 336 9.7
2006-06-07 04:10:55 51°14.226 2°55.326 327.1 10 321 9.7
2006-06-07 04:11:55 51°14.341 2°55.115 309.3 11.1 306 9.6
2006-06-07 04:12:54 51°14.477 2°54.884 317.4 12.9 310 8.9
2006-06-07 04:13:53 51°14.621 2°54.637 322.1 13 314 8.5
2006-06-07 04:14:54 51°14.759 2°54.365 316.4 13 312 8.4
2006-06-07 04:15:53 51°14.908 2°54.126 322.5 12.8 315 8
2006-06-07 04:16:53 51°15.052 2°53.879 312.2 13 304 8.4
2006-06-07 04:17:53 51°15.188 2°53.61 318.1 13.1 309 8.7
2006-06-07 04:18:53 51°15.296 2°53.304 304.7 13.4 298 9.2
2006-06-07 04:19:55 51°15.392 2°52.976 289.4 13.5 280 9.6
2006-06-07 04:20:53 51°15.406 2°52.625 278.1 13.8 273 10.1
2006-06-07 04:21:53 51°15.43 2°52.262 280.1 13.8 274 10.7
2006-06-07 04:22:53 51°15.463 2°51.902 286 13.7 280 11.2
2006-06-07 04:23:54 51°15.494 2°51.535 281.7 13.7 276 11.6
2006-06-07 04:24:55 51°15.535 2°51.172 287.1 13.7 281 11.8
2006-06-07 04:25:53 51°15.574 2°50.825 287 13.8 280 11.9
2006-06-07 04:26:53 51°15.616 2°50.465 286.2 13.8 280 11.9
2006-06-07 04:27:54 51°15.658 2°50.101 286.6 13.7 280 12.1
2006-06-07 04:28:53 51°15.696 2°49.753 287.4 13.5 282 11.6
2006-06-07 04:29:55 51°15.734 2°49.391 284.5 13.3 279 10
2006-06-07 04:30:53 51°15.778 2°49.058 288 13.4 282 9.8
2006-06-07 04:31:55 51°15.82 2°48.694 289.7 13.5 285 10.8
2006-06-07 04:32:54 51°15.869 2°48.347 287.7 13.8 281 12.6
2006-06-07 04:33:54 51°15.924 2°47.994 291.7 13.7 286 14.1
2006-06-07 04:34:53 51°15.997 2°47.656 296 13.7 289 15.1
2006-06-07 04:35:53 51°16.067 2°47.313 295.4 13.4 290 15.3
2006-06-07 04:36:53 51°16.141 2°46.981 295.8 13.3 290 13.3
2006-06-07 04:37:55 51°16.211 2°46.638 295.9 13.1 289 11.1
2006-06-07 04:38:55 51°16.276 2°46.309 292.4 13 285 9.3
2006-06-07 04:39:53 51°16.344 2°45.996 299.4 12.9 294 9
2006-06-07 04:40:55 51°16.434 2°45.671 300.7 13 293 10
2006-06-07 04:41:53 51°16.512 2°45.361 300.7 13.1 292 10.9
2006-06-07 04:42:53 51°16.59 2°45.036 298.4 13.1 291 10.9
2006-06-07 04:43:53 51°16.685 2°44.726 305.3 13.1 297 11.9
2006-06-07 04:44:53 51°16.782 2°44.412 305.5 13.3 297 14
2006-06-07 04:45:55 51°16.88 2°44.08 304.8 13.4 296 14.7
2006-06-07 04:46:55 51°16.982 2°43.764 308.7 13.3 300 14.2
2006-06-07 04:47:55 51°17.096 2°43.463 309.8 13.3 301 13.8
2006-06-07 04:48:53 51°17.203 2°43.168 308.5 13.3 300 10.6
2006-06-07 04:49:55 51°17.322 2°42.863 310 12.9 302 8.5
2006-06-07 04:50:55 51°17.45 2°42.576 310.7 13.5 304 18.9
2006-06-07 04:51:53 51°17.573 2°42.293 314.2 13.5 306 22.7
2006-06-07 04:52:53 51°17.704 2°42.005 313.9 13.4 306 23.4
2006-06-07 04:53:55 51°17.839 2°41.707 314.9 13.4 306 23.2
2006-06-07 04:54:55 51°17.971 2°41.421 313.8 13.3 306 22.2
2006-06-07 04:55:54 51°18.099 2°41.14 314 13.3 305 19
2006-06-07 04:56:53 51°18.225 2°40.858 315.2 13.2 305 15
2006-06-07 04:57:55 51°18.358 2°40.561 314.2 13.4 305 17.3
2006-06-07 04:58:52 51°18.482 2°40.292 314.2 13.2 306 16.4
2006-06-07 04:59:54 51°18.618 2°39.995 313.1 13.4 305 24.3
2006-06-07 05:00:55 51°18.753 2°39.706 314.8 13.3 307 23.9
2006-06-07 05:01:53 51°18.881 2°39.432 313.3 13.3 306 24.5
2006-06-07 05:02:55 51°19.019 2°39.138 314.5 13.4 307 26.8
2006-06-07 05:03:55 51°19.149 2°38.853 313.7 13.2 305 27.7
2006-06-07 05:04:55 51°19.274 2°38.569 315.3 13 306 26.5
2006-06-07 05:05:55 51°19.4 2°38.286 314.9 13 306 23.4
2006-06-07 05:06:55 51°19.525 2°38.003 314.5 13.1 306 21.3
2006-06-07 05:07:55 51°19.659 2°37.731 316.3 13.1 308 19.3
2006-06-07 05:08:55 51°19.786 2°37.468 317.5 11 308 21.9
2006-06-07 05:09:55 51°19.876 2°37.279 315.4 7.2 304 21.5
2006-06-07 05:10:53 51°19.926 2°37.147 315.7 5.4 300 20.5
2006-06-07 05:11:52 51°19.961 2°37.057 327.5 2.6 302 21.8
2006-06-07 05:12:55 51°19.981 2°37.013 345.2 1.6 308 21.7
2006-06-07 05:13:55 51°19.99 2°36.984 352.7 1.1 298 21.3
2006-06-07 05:14:55 51°19.996 2°36.961 359 0.8 285 21.7
2006-06-07 05:15:53 51°19.998 2°36.941 4.4 0.7 272 21.6
2006-06-07 05:16:53 51°19.997 2°36.922 8.1 0.7 264 21.5
2006-06-07 05:17:55 51°19.995 2°36.902 11.8 0.6 243 21.3
2006-06-07 05:18:55 51°19.991 2°36.885 14.4 0.7 249 21.3
2006-06-07 05:19:55 51°19.986 2°36.868 16.9 0.7 240 21.4
2006-06-07 05:20:55 51°19.98 2°36.852 19.5 0.8 238 21.7
2006-06-07 05:21:55 51°19.976 2°36.836 22.4 0.5 272 20.7
2006-06-07 05:22:55 51°19.986 2°36.844 52.5 1.1 53 21.4
2006-06-07 05:23:55 51°19.982 2°36.89 94.9 2.4 107 21.5
2006-06-07 05:24:55 51°19.971 2°36.967 88.2 3.2 97 21.2
2006-06-07 05:25:55 51°19.973 2°37.043 75.4 2.3 85 21.6
2006-06-07 05:26:55 51°19.965 2°37.046 65.4 1.3 226 21.7
2006-06-07 05:27:53 51°19.952 2°37.025 63.8 1.1 229 21
2006-06-07 05:28:52 51°19.941 2°37.01 61.6 0.6 219 20.9
2006-06-07 05:29:54 51°19.937 2°37.01 52.9 0.2 76 21.2
2006-06-07 05:30:55 51°19.939 2°37.015 45 0.2 46 20.5
2006-06-07 05:31:52 51°19.941 2°37.018 41.1 0.1 39 20
2006-06-07 05:32:55 51°19.941 2°37.017 38.9 0.1 277 20.1
2006-06-07 05:33:53 51°19.939 2°37.015 36.6 0.1 249 20.5
2006-06-07 05:34:53 51°19.939 2°37.012 34.9 0.1 248 20.8
2006-06-07 05:35:55 51°19.939 2°37.011 37.1 0.1 357 20.8
2006-06-07 05:36:53 51°19.94 2°37.013 39.1 0.1 49 20.7
2006-06-07 05:37:55 51°19.942 2°37.014 38.9 0.1 18 20.3
2006-06-07 05:38:55 51°19.942 2°37.015 38.1 -999 204 20.2
2006-06-07 05:39:55 51°19.941 2°37.014 38.7 0.1 204 20.4
2006-06-07 05:40:53 51°19.939 2°37.013 37.9 0.1 186 20.8
2006-06-07 05:41:55 51°19.939 2°37.013 37.3 0.1 171 20.9
2006-06-07 05:42:53 51°19.938 2°37.015 37.6 0.1 117 20.6
2006-06-07 05:43:55 51°19.939 2°37.017 34.9 -999 338 20.5
2006-06-07 05:44:55 51°19.939 2°37.016 31.7 0.1 229 20.6
2006-06-07 05:45:54 51°19.939 2°37.015 30.3 0.1 248 20.6
2006-06-07 05:46:53 51°19.939 2°37.014 29.9 0.1 283 20.7
2006-06-07 05:47:54 51°19.939 2°37.014 30.9 0.1 84 20.8
2006-06-07 05:48:55 51°19.94 2°37.014 32 0.1 48 20.9
2006-06-07 05:49:55 51°19.941 2°37.015 31.6 0.1 11 20.5
2006-06-07 05:50:55 51°19.941 2°37.015 31.2 -999 59 20.4
2006-06-07 05:51:55 51°19.941 2°37.015 30.8 -999 211 20.3
2006-06-07 05:52:54 51°19.941 2°37.015 30.8 -999 336 20.4
2006-06-07 05:53:55 51°19.941 2°37.014 30.4 -999 46 20.4
2006-06-07 05:54:55 51°19.941 2°37.014 29.2 -999 190 20.5
2006-06-07 05:55:55 51°19.94 2°37.015 29.3 -999 226 20.7
2006-06-07 05:56:55 51°19.94 2°37.015 30.1 -999 98 20.9
2006-06-07 05:57:53 51°19.94 2°37.015 30.8 -999 33 20.7
2006-06-07 05:58:55 51°19.941 2°37.015 30.3 0.1 8 20.5
2006-06-07 05:59:55 51°19.941 2°37.015 30.2 -999 218 20.5
2006-06-07 06:00:55 51°19.941 2°37.015 31.7 -999 179 20.5
2006-06-07 06:01:55 51°19.942 2°37.016 34.4 -999 -999 20.5
2006-06-07 06:02:55 51°19.941 2°37.017 35.7 0.1 145 20.6
2006-06-07 06:03:53 51°19.939 2°37.018 37.2 0.1 175 20.8
2006-06-07 06:04:55 51°19.938 2°37.019 37.9 0.1 142 20.8
2006-06-07 06:05:55 51°19.938 2°37.02 35.8 -999 310 20.7
2006-06-07 06:06:55 51°19.938 2°37.021 32.8 0.2 328 20.6
2006-06-07 06:07:55 51°19.939 2°37.022 30.8 -999 78 20.3
2006-06-07 06:08:55 51°19.939 2°37.022 29.6 -999 287 20.3
2006-06-07 06:09:55 51°19.939 2°37.022 29 0.2 304 20.3
2006-06-07 06:10:53 51°19.938 2°37.021 29.6 -999 262 20.3
2006-06-07 06:11:55 51°19.938 2°37.021 30 -999 148 20.4
2006-06-07 06:12:54 51°19.937 2°37.022 28 0.1 269 20.3
2006-06-07 06:13:54 51°19.937 2°37.022 25.8 0.1 29 20.4
2006-06-07 06:14:55 51°19.938 2°37.022 24.7 -999 194 20.4
2006-06-07 06:15:52 51°19.937 2°37.022 23.4 0.1 285 20.5
2006-06-07 06:16:55 51°19.937 2°37.021 23.6 0.1 55 20.6
2006-06-07 06:17:52 51°19.937 2°37.021 24.5 0.1 308 20.5
2006-06-07 06:18:55 51°19.938 2°37.022 26.7 0.1 68 20.4
2006-06-07 06:19:55 51°19.938 2°37.023 28.8 -999 102 20.4
2006-06-07 06:20:55 51°19.938 2°37.023 31.2 0.1 55 20.6
2006-06-07 06:21:55 51°19.938 2°37.024 30.4 0.1 7 20.7
2006-06-07 06:22:55 51°19.938 2°37.025 27.9 -999 110 20.7
2006-06-07 06:23:55 51°19.938 2°37.025 26.5 -999 19 20.9
2006-06-07 06:24:54 51°19.938 2°37.027 25.1 0.1 117 21
2006-06-07 06:25:53 51°19.938 2°37.028 24.9 -999 113 21.1
2006-06-07 06:26:55 51°19.938 2°37.029 23.6 0.1 89 21.2
2006-06-07 06:27:55 51°19.938 2°37.029 22 -999 284 21.3
2006-06-07 06:28:55 51°19.938 2°37.029 19.6 -999 302 21.3
2006-06-07 06:29:55 51°19.938 2°37.029 16.7 0.1 312 21.2
2006-06-07 06:30:55 51°19.937 2°37.028 14.5 0.1 275 21.1
2006-06-07 06:31:52 51°19.937 2°37.029 13.8 -999 9 21.1
2006-06-07 06:32:55 51°19.937 2°37.029 14.1 -999 244 21.1
2006-06-07 06:33:53 51°19.937 2°37.029 12.4 -999 234 21.1
2006-06-07 06:34:55 51°19.936 2°37.029 10.1 0.1 180 21.1
2006-06-07 06:35:55 51°19.936 2°37.029 9 0.1 62 21.1
2006-06-07 06:36:55 51°19.936 2°37.03 8.5 0.1 68 21.3
2006-06-07 06:37:55 51°19.937 2°37.031 8.8 0.1 35 21.4
2006-06-07 06:38:55 51°19.938 2°37.033 7.5 0.1 82 21.4
2006-06-07 06:39:55 51°19.939 2°37.035 5 0.1 46 21.6
2006-06-07 06:40:52 51°19.939 2°37.036 1.7 -999 62 21.9
2006-06-07 06:41:55 51°19.939 2°37.037 357.7 0.1 86 22
2006-06-07 06:42:55 51°19.939 2°37.038 353.1 0.1 99 22.1
2006-06-07 06:43:55 51°19.938 2°37.038 347.7 0.1 99 22.2
2006-06-07 06:44:55 51°19.938 2°37.039 343.1 0.1 220 22.1
2006-06-07 06:45:55 51°19.938 2°37.038 339.6 -999 149 22
2006-06-07 06:46:55 51°19.938 2°37.038 338.7 0.1 67 22.1
2006-06-07 06:47:55 51°19.938 2°37.038 339.9 -999 21 22.2
2006-06-07 06:48:55 51°19.94 2°37.04 339.8 0.1 52 22.2
2006-06-07 06:49:55 51°19.941 2°37.042 338.1 0.1 22 22.1
2006-06-07 06:50:55 51°19.941 2°37.043 333.7 0.1 50 22.4
2006-06-07 06:51:54 51°19.941 2°37.045 328 0.1 59 22.5
2006-06-07 06:52:55 51°19.942 2°37.047 322.5 0.1 40 22.6
2006-06-07 06:53:55 51°19.944 2°37.049 315.2 0.2 51 22.6
2006-06-07 06:54:55 51°19.944 2°37.051 307 0.1 48 22.6
2006-06-07 06:55:55 51°19.944 2°37.052 297.9 -999 184 22.7
2006-06-07 06:56:55 51°19.946 2°37.053 292.6 -999 15 22.9
2006-06-07 06:57:55 51°19.946 2°37.054 287.4 0.1 121 23
2006-06-07 06:58:55 51°19.946 2°37.055 281.8 0.1 1 23.2
2006-06-07 06:59:55 51°19.946 2°37.055 278.9 0.1 26 23.2
2006-06-07 07:00:53 51°19.948 2°37.051 278.1 0.1 -999 23.2
2006-06-07 07:01:55 51°19.947 2°37.052 277.6 0.1 359 23.1
2006-06-07 07:02:55 51°19.949 2°37.05 277.2 0.1 233 23.1
2006-06-07 07:03:55 51°19.949 2°37.052 275 0.1 2 23.1
2006-06-07 07:04:55 51°19.949 2°37.053 272.2 -999 46 23.1
2006-06-07 07:05:55 51°19.949 2°37.054 270 -999 36 23.1
2006-06-07 07:06:55 51°19.949 2°37.054 268.8 -999 219 23.1
2006-06-07 07:07:55 51°19.949 2°37.054 269.2 0.1 24 23.1
2006-06-07 07:08:55 51°19.95 2°37.054 268.7 -999 354 23.1
2006-06-07 07:09:55 51°19.95 2°37.055 267.8 0.1 235 23.2
2006-06-07 07:10:55 51°19.95 2°37.055 266.5 -999 136 23.2
2006-06-07 07:11:55 51°19.949 2°37.056 265.5 -999 206 23.2
2006-06-07 07:12:55 51°19.949 2°37.056 264.6 -999 35 23.2
2006-06-07 07:13:55 51°19.949 2°37.056 264.9 0.1 188 23.2
2006-06-07 07:14:55 51°19.949 2°37.057 264.5 0.1 213 23.3
2006-06-07 07:15:55 51°19.95 2°37.057 263.4 0.1 17 23.3
2006-06-07 07:16:55 51°19.95 2°37.057 260.9 0.1 155 23.4
2006-06-07 07:17:55 51°19.95 2°37.056 259.1 0.1 170 23.4
2006-06-07 07:18:55 51°19.95 2°37.056 257.9 -999 20 23.4
2006-06-07 07:19:55 51°19.95 2°37.056 256.9 0.1 126 23.4
2006-06-07 07:20:55 51°19.951 2°37.057 258.1 -999 195 23.4
2006-06-07 07:21:55 51°19.952 2°37.057 259.8 0.1 58 23.5
2006-06-07 07:22:55 51°19.952 2°37.057 260.4 0.1 103 23.6
2006-06-07 07:23:55 51°19.953 2°37.058 260.7 0.1 337 23.6
2006-06-07 07:24:55 51°19.954 2°37.057 260.2 0.1 42 23.6
2006-06-07 07:25:55 51°19.954 2°37.057 258.4 -999 204 23.5
2006-06-07 07:26:55 51°19.955 2°37.058 254.5 -999 347 23.4
2006-06-07 07:27:55 51°19.956 2°37.058 249.8 0.1 129 23.4
2006-06-07 07:28:55 51°19.956 2°37.059 245.9 -999 342 23.4
2006-06-07 07:29:55 51°19.955 2°37.061 243 -999 195 23.4
2006-06-07 07:30:55 51°19.954 2°37.062 242.5 -999 131 23.4
2006-06-07 07:31:55 51°19.954 2°37.062 243.3 -999 345 23.4
2006-06-07 07:32:55 51°19.954 2°37.063 243.2 -999 58 23.5
2006-06-07 07:33:55 51°19.954 2°37.062 242.6 -999 22 23.5
2006-06-07 07:34:55 51°19.954 2°37.062 243.6 -999 44 23.4
2006-06-07 07:35:55 51°19.954 2°37.061 244.7 0.1 312 23.4
2006-06-07 07:36:55 51°19.954 2°37.061 244.6 0.1 8 23.4
2006-06-07 07:37:55 51°19.954 2°37.062 243.6 -999 101 23.5
2006-06-07 07:38:55 51°19.954 2°37.063 244.2 0.1 138 23.5
2006-06-07 07:39:55 51°19.953 2°37.065 244 0.1 163 23.6
2006-06-07 07:40:55 51°19.953 2°37.065 246.3 0.1 325 23.6
2006-06-07 07:41:55 51°19.953 2°37.065 249.1 -999 290 23.6
2006-06-07 07:42:55 51°19.954 2°37.065 249.4 0.1 58 23.7
2006-06-07 07:43:55 51°19.955 2°37.064 249 0.1 8 23.8
2006-06-07 07:44:55 51°19.955 2°37.065 247.5 0.1 9 23.9
2006-06-07 07:45:55 51°19.956 2°37.066 245.2 0.1 112 23.9
2006-06-07 07:46:55 51°19.956 2°37.068 244.4 -999 124 23.8
2006-06-07 07:47:55 51°19.956 2°37.068 244.9 0.1 1 23.8
2006-06-07 07:48:55 51°19.957 2°37.068 244 0.1 38 23.8
2006-06-07 07:49:55 51°19.956 2°37.069 240.7 0.1 313 23.8
2006-06-07 07:50:55 51°19.955 2°37.071 238.9 -999 184 23.6
2006-06-07 07:51:55 51°19.955 2°37.071 238 -999 220 23.7
2006-06-07 07:52:55 51°19.955 2°37.072 240.1 -999 16 23.8
2006-06-07 07:53:55 51°19.956 2°37.071 242.4 0.1 119 23.6
2006-06-07 07:54:55 51°19.956 2°37.071 243 0.1 309 23.6
2006-06-07 07:55:55 51°19.957 2°37.071 242.7 -999 350 23.6
2006-06-07 07:56:55 51°19.957 2°37.071 241.2 -999 116 23.6
2006-06-07 07:57:55 51°19.958 2°37.072 240.3 -999 132 23.7
2006-06-07 07:58:53 51°19.958 2°37.071 240.5 0.1 345 23.6
2006-06-07 07:59:55 51°19.958 2°37.071 239 -999 95 23.6
2006-06-07 08:00:55 51°19.958 2°37.071 238.1 -999 299 23.6
2006-06-07 08:01:53 51°19.959 2°37.07 238.6 -999 272 23.7
2006-06-07 08:02:53 51°19.959 2°37.071 237.6 0.1 97 23.6
2006-06-07 08:03:54 51°19.958 2°37.072 234.9 0.1 151 23.7
2006-06-07 08:04:55 51°19.958 2°37.073 233.6 -999 212 23.7
2006-06-07 08:05:55 51°19.957 2°37.074 234.2 -999 129 23.7
2006-06-07 08:06:55 51°19.957 2°37.074 234.9 0.1 323 23.7
2006-06-07 08:07:55 51°19.957 2°37.074 236.4 0.1 125 23.7
2006-06-07 08:08:54 51°19.958 2°37.074 237.4 0.2 329 23.7
2006-06-07 08:09:55 51°19.958 2°37.075 237.2 0.1 26 23.8
2006-06-07 08:10:55 51°19.959 2°37.074 237.2 0.1 -999 23.9
2006-06-07 08:11:55 51°19.96 2°37.074 238.2 0.1 343 23.7
2006-06-07 08:12:55 51°19.961 2°37.075 238 0.1 88 23.4
2006-06-07 08:13:55 51°19.961 2°37.077 236.5 0.1 82 23.3
2006-06-07 08:14:53 51°19.962 2°37.077 236.2 0.1 103 23.3
2006-06-07 08:15:55 51°19.962 2°37.078 235.3 0.1 93 23.2
2006-06-07 08:16:55 51°19.961 2°37.078 233.8 -999 163 23.2
2006-06-07 08:17:53 51°19.961 2°37.078 234.2 -999 127 23.2
2006-06-07 08:18:55 51°19.961 2°37.079 235.3 -999 57 23.2
2006-06-07 08:19:55 51°19.961 2°37.079 235.8 -999 152 23.1
2006-06-07 08:20:55 51°19.961 2°37.08 235.8 0.1 284 23.2
2006-06-07 08:21:54 51°19.961 2°37.08 236 -999 50 23.1
2006-06-07 08:22:55 51°19.961 2°37.08 236.7 -999 312 23.1
2006-06-07 08:23:55 51°19.962 2°37.08 237.7 -999 63 23
2006-06-07 08:24:53 51°19.962 2°37.08 237.5 -999 326 23.1
2006-06-07 08:25:55 51°19.962 2°37.079 236.8 -999 66 23.1
2006-06-07 08:26:55 51°19.963 2°37.079 236.7 0.1 303 23
2006-06-07 08:27:55 51°19.963 2°37.08 236.7 -999 105 23.1
2006-06-07 08:28:53 51°19.964 2°37.08 236.2 -999 65 23
2006-06-07 08:29:53 51°19.963 2°37.08 235.2 -999 35 23
2006-06-07 08:30:55 51°19.963 2°37.08 235.5 0.1 156 23
2006-06-07 08:31:55 51°19.962 2°37.079 235 0.1 150 23.1
2006-06-07 08:32:55 51°19.962 2°37.08 234.7 -999 261 23
2006-06-07 08:33:55 51°19.961 2°37.08 234.6 0.1 138 23.1
2006-06-07 08:34:55 51°19.962 2°37.081 235.5 -999 292 23
2006-06-07 08:35:55 51°19.962 2°37.081 235.8 -999 293 23
2006-06-07 08:36:53 51°19.962 2°37.081 236.7 0.1 119 23.1
2006-06-07 08:37:55 51°19.963 2°37.08 236 -999 270 23
2006-06-07 08:38:55 51°19.963 2°37.08 236.1 0.1 307 23
2006-06-07 08:39:55 51°19.963 2°37.081 235.4 0.1 109 23
2006-06-07 08:40:53 51°19.963 2°37.08 235.5 -999 171 23
2006-06-07 08:41:53 51°19.963 2°37.081 235.8 0.1 105 23
2006-06-07 08:42:53 51°19.963 2°37.081 234.7 -999 169 23
2006-06-07 08:43:55 51°19.963 2°37.081 234.4 -999 153 23
2006-06-07 08:44:53 51°19.963 2°37.081 236.1 -999 316 22.9
2006-06-07 08:45:55 51°19.962 2°37.081 235.7 -999 285 23
2006-06-07 08:46:55 51°19.962 2°37.081 235.2 -999 89 23
2006-06-07 08:47:55 51°19.962 2°37.081 235.6 0.1 115 23
2006-06-07 08:48:53 51°19.961 2°37.081 235.7 -999 312 23
2006-06-07 08:49:55 51°19.961 2°37.082 236.7 0.1 98 23.1
2006-06-07 08:50:55 51°19.962 2°37.081 237.6 0.1 353 23
2006-06-07 08:51:55 51°19.962 2°37.081 238 0.1 350 22.9
2006-06-07 08:52:55 51°19.963 2°37.081 238 0.1 37 22.9
2006-06-07 08:53:55 51°19.964 2°37.081 236.7 -999 118 22.7
2006-06-07 08:54:53 51°19.964 2°37.081 234.2 -999 85 22.7
2006-06-07 08:55:55 51°19.965 2°37.082 233.5 0.1 96 22.6
2006-06-07 08:56:55 51°19.965 2°37.082 232.9 0.1 80 22.6
2006-06-07 08:57:54 51°19.965 2°37.082 232.7 0.1 330 22.5
2006-06-07 08:58:55 51°19.966 2°37.082 231.3 0.1 319 22.5
2006-06-07 08:59:55 51°19.966 2°37.083 230 0.1 352 22.5
2006-06-07 09:00:55 51°19.966 2°37.084 228 -999 29 22.6
2006-06-07 09:01:55 51°19.966 2°37.086 227.9 0.1 114 22.7
2006-06-07 09:02:55 51°19.966 2°37.086 229.3 -999 308 22.7
2006-06-07 09:03:55 51°19.966 2°37.086 229.4 -999 66 22.7
2006-06-07 09:04:55 51°19.966 2°37.086 228.7 -999 330 22.6
2006-06-07 09:05:55 51°19.966 2°37.087 228.3 -999 60 22.5
2006-06-07 09:06:55 51°19.966 2°37.087 227.9 0.1 324 22.4
2006-06-07 09:07:55 51°19.966 2°37.087 226.6 0.1 141 22.6
2006-06-07 09:08:55 51°19.965 2°37.088 227.2 -999 222 22.5
2006-06-07 09:09:55 51°19.965 2°37.089 228.1 -999 91 22.4
2006-06-07 09:10:55 51°19.965 2°37.089 228.4 0.1 102 22.4
2006-06-07 09:11:55 51°19.965 2°37.089 229.4 -999 289 22.4
2006-06-07 09:12:55 51°19.966 2°37.089 228.6 0.1 114 22.4
2006-06-07 09:13:55 51°19.965 2°37.089 228.2 0.1 303 22.4
2006-06-07 09:14:55 51°19.965 2°37.089 228.7 0.1 256 22.4
2006-06-07 09:15:55 51°19.965 2°37.089 228.3 -999 357 22.3
2006-06-07 09:16:55 51°19.965 2°37.089 227.3 -999 106 22.3
2006-06-07 09:17:55 51°19.965 2°37.09 227.1 0.1 111 22.1
2006-06-07 09:18:55 51°19.965 2°37.09 228.7 0.1 127 22.1
2006-06-07 09:19:55 51°19.965 2°37.09 228.7 -999 330 22.2
2006-06-07 09:20:55 51°19.964 2°37.09 228.5 -999 216 22.2
2006-06-07 09:21:55 51°19.964 2°37.09 229.2 0.1 311 22.1
2006-06-07 09:22:55 51°19.964 2°37.09 230.1 -999 -999 22.1
2006-06-07 09:23:55 51°19.965 2°37.09 229.6 -999 348 22.2
2006-06-07 09:24:55 51°19.965 2°37.091 229.2 -999 304 22
2006-06-07 09:25:55 51°19.965 2°37.091 230 0.1 345 22
2006-06-07 09:26:55 51°19.965 2°37.091 229.9 -999 139 22
2006-06-07 09:27:55 51°19.965 2°37.091 229.8 0.1 178 22.1
2006-06-07 09:28:55 51°19.965 2°37.091 230.5 -999 354 22
2006-06-07 09:29:54 51°19.965 2°37.091 229.6 -999 166 22
2006-06-07 09:30:55 51°19.965 2°37.091 230.1 -999 232 22
2006-06-07 09:31:55 51°19.965 2°37.091 231 -999 335 22
2006-06-07 09:32:55 51°19.965 2°37.091 230.1 -999 117 22
2006-06-07 09:33:55 51°19.965 2°37.092 230 -999 198 21.9
2006-06-07 09:34:55 51°19.965 2°37.092 230 -999 181 21.8
2006-06-07 09:35:55 51°19.965 2°37.092 230.5 -999 355 21.9
2006-06-07 09:36:55 51°19.964 2°37.092 230.6 -999 297 22
2006-06-07 09:37:55 51°19.964 2°37.092 230.6 -999 300 22
2006-06-07 09:38:55 51°19.964 2°37.092 230.8 0.1 275 21.9
2006-06-07 09:39:55 51°19.964 2°37.092 230.8 0.1 125 21.9
2006-06-07 09:40:55 51°19.964 2°37.092 232.2 0.1 321 21.9
2006-06-07 09:41:55 51°19.965 2°37.091 232.7 -999 328 21.9
2006-06-07 09:42:55 51°19.965 2°37.092 231.5 0.1 141 21.9
2006-06-07 09:43:55 51°19.965 2°37.092 230.6 -999 153 21.9
2006-06-07 09:44:55 51°19.964 2°37.092 229.7 0.1 144 21.8
2006-06-07 09:45:55 51°19.964 2°37.092 230.7 0.1 148 21.9
2006-06-07 09:46:55 51°19.964 2°37.092 232.5 -999 353 21.8
2006-06-07 09:47:55 51°19.965 2°37.091 234.5 0.1 289 21.9
2006-06-07 09:48:55 51°19.965 2°37.091 234.4 -999 1 22
2006-06-07 09:49:54 51°19.966 2°37.091 232.9 0.1 103 22
2006-06-07 09:50:55 51°19.966 2°37.091 232.1 0.1 147 21.8
2006-06-07 09:51:55 51°19.965 2°37.091 231.1 -999 152 21.8
2006-06-07 09:52:55 51°19.965 2°37.09 230.9 0.1 267 21.8
2006-06-07 09:53:55 51°19.964 2°37.09 232.2 0.1 306 22
2006-06-07 09:54:55 51°19.964 2°37.09 232.7 0.1 55 22
2006-06-07 09:55:55 51°19.965 2°37.09 231.5 -999 85 21.9
2006-06-07 09:56:55 51°19.965 2°37.091 231.8 -999 197 21.8
2006-06-07 09:57:55 51°19.965 2°37.089 231.8 -999 327 22
2006-06-07 09:58:55 51°19.965 2°37.09 230 -999 276 21.9
2006-06-07 09:59:55 51°19.964 2°37.09 229.6 0.1 155 22
2006-06-07 10:00:55 51°19.964 2°37.09 230.6 -999 139 21.9
2006-06-07 10:01:55 51°19.964 2°37.089 232.5 -999 316 22
2006-06-07 10:02:55 51°19.965 2°37.089 231.6 0.1 322 22
2006-06-07 10:03:55 51°19.965 2°37.089 231.4 -999 114 21.8
2006-06-07 10:04:55 51°19.965 2°37.089 232.3 0.1 270 21.9
2006-06-07 10:05:54 51°19.965 2°37.088 231.5 -999 255 22
2006-06-07 10:06:55 51°19.965 2°37.09 229.8 -999 201 21.8
2006-06-07 10:07:55 51°19.964 2°37.09 231.2 0.1 292 21.8
2006-06-07 10:08:55 51°19.964 2°37.088 231.9 0.1 142 22.1
2006-06-07 10:09:55 51°19.964 2°37.088 232.2 -999 354 22.1
2006-06-07 10:10:55 51°19.964 2°37.089 232.9 -999 271 22
2006-06-07 10:11:55 51°19.965 2°37.088 234.2 0.1 336 22.1
2006-06-07 10:12:55 51°19.966 2°37.089 234 0.1 15 21.8
2006-06-07 10:13:55 51°19.966 2°37.089 230.4 -999 292 21.7
2006-06-07 10:14:55 51°19.965 2°37.089 230.9 0.1 196 21.9
2006-06-07 10:15:55 51°19.965 2°37.089 231.4 0.1 159 22.1
2006-06-07 10:16:55 51°19.964 2°37.089 230.7 -999 333 22.1
2006-06-07 10:17:55 51°19.964 2°37.089 229.5 -999 129 22
2006-06-07 10:18:55 51°19.963 2°37.089 232.2 -999 324 21.9
2006-06-07 10:19:55 51°19.964 2°37.089 233.1 0.1 302 22
2006-06-07 10:20:54 51°19.964 2°37.089 230.7 0.2 339 22
2006-06-07 10:21:55 51°19.965 2°37.089 231.1 0.1 325 22
2006-06-07 10:22:55 51°19.965 2°37.089 231.3 -999 20 22
2006-06-07 10:23:55 51°19.965 2°37.089 230 -999 109 21.9
2006-06-07 10:24:55 51°19.967 2°37.089 228.7 -999 135 21.9
2006-06-07 10:25:53 51°19.965 2°37.089 230.3 -999 271 21.9
2006-06-07 10:26:55 51°19.964 2°37.089 230.8 0.1 315 22
2006-06-07 10:27:55 51°19.964 2°37.089 230 -999 33 22
2006-06-07 10:28:52 51°19.965 2°37.089 230.4 -999 46 22
2006-06-07 10:29:55 51°19.965 2°37.088 231.9 0.1 325 21.9
2006-06-07 10:30:55 51°19.966 2°37.088 230.1 -999 285 21.8
2006-06-07 10:31:55 51°19.966 2°37.088 228.6 0.1 130 21.9
2006-06-07 10:32:55 51°19.966 2°37.088 229.1 0.1 288 21.7
2006-06-07 10:33:55 51°19.965 2°37.088 227.5 0.1 183 21.9
2006-06-07 10:34:55 51°19.965 2°37.089 225.7 0.1 66 21.8
2006-06-07 10:35:55 51°19.965 2°37.089 226.4 0.1 221 21.9
2006-06-07 10:36:55 51°19.964 2°37.088 229.6 -999 270 22.1
2006-06-07 10:37:52 51°19.965 2°37.088 230 -999 56 22.1
2006-06-07 10:38:55 51°19.965 2°37.09 227.4 -999 46 21.8
2006-06-07 10:39:55 51°19.964 2°37.09 228.6 -999 302 21.7
2006-06-07 10:40:55 51°19.965 2°37.088 233.5 0.1 312 21.9
2006-06-07 10:41:55 51°19.966 2°37.087 233 -999 358 21.9
2006-06-07 10:42:55 51°19.967 2°37.088 229.1 -999 55 21.8
2006-06-07 10:43:55 51°19.967 2°37.089 227.5 0.1 70 21.6
2006-06-07 10:44:55 51°19.966 2°37.088 229.5 -999 228 21.9
2006-06-07 10:45:55 51°19.966 2°37.088 232.1 0.1 286 21.9
2006-06-07 10:46:55 51°19.966 2°37.087 234.5 0.1 343 21.9
2006-06-07 10:47:55 51°19.967 2°37.086 236.6 0.1 349 21.7
2006-06-07 10:48:55 51°19.969 2°37.086 240.9 0.2 322 21.6
2006-06-07 10:49:55 51°19.97 2°37.084 240.9 0.2 353 21.6
2006-06-07 10:50:55 51°19.97 2°37.083 238.8 -999 260 21.8
2006-06-07 10:51:55 51°19.97 2°37.081 237.5 0.1 334 21.8
2006-06-07 10:52:55 51°19.971 2°37.081 236.6 0.2 335 21.8
2006-06-07 10:53:55 51°19.972 2°37.081 235.1 0.2 336 21.7
2006-06-07 10:54:53 51°19.971 2°37.083 230.8 -999 77 21.7
2006-06-07 10:55:55 51°19.969 2°37.085 230.8 -999 74 21.5
2006-06-07 10:56:55 51°19.968 2°37.086 233.7 0.1 17 21.5
2006-06-07 10:57:55 51°19.968 2°37.085 237.3 0.2 330 21.5
2006-06-07 10:58:55 51°19.968 2°37.083 238.9 0.1 310 21.5
2006-06-07 10:59:55 51°19.97 2°37.081 240.2 0.2 318 21.7
2006-06-07 11:00:55 51°19.971 2°37.081 239.2 0.1 353 21.7
2006-06-07 11:01:55 51°19.971 2°37.081 237.3 -999 320 21.7
2006-06-07 11:02:55 51°19.971 2°37.081 236.2 0.1 311 21.7
2006-06-07 11:03:55 51°19.971 2°37.081 235.3 -999 306 21.7
2006-06-07 11:04:55 51°19.97 2°37.082 235.3 -999 35 21.6
2006-06-07 11:05:55 51°19.97 2°37.083 235 -999 98 21.6
2006-06-07 11:06:55 51°19.97 2°37.082 237.7 0.2 322 21.6
2006-06-07 11:07:55 51°19.97 2°37.082 238.1 -999 284 21.6
2006-06-07 11:08:55 51°19.97 2°37.082 234.4 0.1 309 21.6
2006-06-07 11:09:55 51°19.97 2°37.082 234.9 0.1 141 21.6
2006-06-07 11:10:54 51°19.971 2°37.081 237.3 -999 323 21.5
2006-06-07 11:11:55 51°19.971 2°37.081 239.3 0.1 38 21.6
2006-06-07 11:12:55 51°19.972 2°37.081 237.6 0.1 43 21.6
2006-06-07 11:13:55 51°19.972 2°37.082 235.1 -999 111 21.6
2006-06-07 11:14:55 51°19.971 2°37.082 231.9 0.1 195 21.7
2006-06-07 11:15:55 51°19.971 2°37.083 230.1 0.1 129 21.5
2006-06-07 11:16:55 51°19.97 2°37.083 231.8 0.1 225 21.5
2006-06-07 11:17:55 51°19.97 2°37.083 233.3 0.1 302 21.5
2006-06-07 11:18:55 51°19.97 2°37.083 234.2 0.1 87 21.5
2006-06-07 11:19:55 51°19.97 2°37.084 234.3 0.1 114 21.4
2006-06-07 11:20:55 51°19.969 2°37.085 234.5 -999 107 21.4
2006-06-07 11:21:55 51°19.969 2°37.084 234.9 -999 310 21.5
2006-06-07 11:22:55 51°19.969 2°37.083 235.2 0.1 324 21.4
2006-06-07 11:23:55 51°19.97 2°37.082 235.2 -999 266 21.4
2006-06-07 11:24:55 51°19.969 2°37.082 234 0.1 306 21.2
2006-06-07 11:25:55 51°19.969 2°37.082 233.7 -999 144 21.4
2006-06-07 11:26:55 51°19.968 2°37.083 234.4 -999 316 21.4
2006-06-07 11:27:55 51°19.969 2°37.083 234.5 0.1 348 21.4
2006-06-07 11:28:55 51°19.97 2°37.083 235 0.1 294 21.4
2006-06-07 11:29:55 51°19.969 2°37.083 235.1 0.1 315 21.4
2006-06-07 11:30:55 51°19.969 2°37.083 234.8 0.1 287 21.3
2006-06-07 11:31:55 51°19.968 2°37.083 235.9 0.1 125 21.4
2006-06-07 11:32:55 51°19.969 2°37.082 237.5 0.1 328 21.2
2006-06-07 11:33:55 51°19.97 2°37.081 238.7 -999 62 21.2
2006-06-07 11:34:55 51°19.97 2°37.081 239.1 -999 19 21.3
2006-06-07 11:35:55 51°19.971 2°37.08 237.3 -999 178 21.3
2006-06-07 11:36:55 51°19.97 2°37.08 234.3 -999 191 21.1
2006-06-07 11:37:55 51°19.97 2°37.081 232.2 0.1 139 21.1
2006-06-07 11:38:55 51°19.97 2°37.08 232.4 0.1 212 21
2006-06-07 11:39:55 51°19.97 2°37.081 233.3 -999 68 21
2006-06-07 11:40:55 51°19.97 2°37.081 234.2 0.1 85 21.2
2006-06-07 11:41:55 51°19.971 2°37.081 234.6 0.1 166 21.1
2006-06-07 11:42:55 51°19.97 2°37.08 233.6 0.1 288 21
2006-06-07 11:43:55 51°19.97 2°37.079 232.2 0.1 166 21
2006-06-07 11:44:55 51°19.97 2°37.079 232.5 -999 178 21
2006-06-07 11:45:55 51°19.97 2°37.078 233.6 -999 105 20.9
2006-06-07 11:46:55 51°19.97 2°37.079 232.9 0.1 26 20.9
2006-06-07 11:47:55 51°19.97 2°37.08 231.7 -999 19 21
2006-06-07 11:48:55 51°19.97 2°37.081 231.6 0.2 131 21.1
2006-06-07 11:49:55 51°19.969 2°37.081 232.1 -999 242 21.1
2006-06-07 11:50:55 51°19.969 2°37.081 234.4 0.1 259 21
2006-06-07 11:51:55 51°19.969 2°37.08 236.7 0.1 206 20.9
2006-06-07 11:52:55 51°19.969 2°37.079 237 0.1 252 20.8
2006-06-07 11:53:55 51°19.968 2°37.079 235.6 0.1 202 20.9
2006-06-07 11:54:55 51°19.967 2°37.079 235.3 -999 167 21.2
2006-06-07 11:55:55 51°19.968 2°37.079 236.5 0.1 337 21
2006-06-07 11:56:55 51°19.968 2°37.079 237.1 0.1 24 20.8
2006-06-07 11:57:55 51°19.969 2°37.079 236.3 0.1 50 20.8
2006-06-07 11:58:53 51°19.968 2°37.08 236 0.1 142 20.8
2006-06-07 11:59:55 51°19.969 2°37.081 235.8 0.1 138 20.8
2006-06-07 12:00:55 51°19.969 2°37.081 235.2 -999 278 20.7
2006-06-07 12:01:55 51°19.968 2°37.08 236.5 0.1 296 20.8
2006-06-07 12:02:54 51°19.968 2°37.079 238.4 0.1 290 20.9
2006-06-07 12:03:53 51°19.968 2°37.078 239.7 0.1 169 21.2
2006-06-07 12:04:53 51°19.969 2°37.077 240.1 -999 343 21
2006-06-07 12:05:55 51°19.969 2°37.077 239.3 0.1 128 20.9
2006-06-07 12:06:55 51°19.97 2°37.077 238.7 -999 118 20.7
2006-06-07 12:07:54 51°19.97 2°37.077 238.2 0.1 341 20.8
2006-06-07 12:08:53 51°19.97 2°37.077 237.5 -999 298 20.6
2006-06-07 12:09:55 51°19.97 2°37.077 237.2 0.1 174 20.6
2006-06-07 12:10:55 51°19.97 2°37.077 237 0.1 315 20.6
2006-06-07 12:11:55 51°19.97 2°37.076 236.6 -999 297 20.6
2006-06-07 12:12:55 51°19.97 2°37.076 235.6 -999 323 20.6
2006-06-07 12:13:54 51°19.97 2°37.076 233.6 -999 256 20.7
2006-06-07 12:14:55 51°19.969 2°37.075 233.1 0.1 252 21.1
2006-06-07 12:15:55 51°19.969 2°37.074 233.7 0.1 154 21.2
2006-06-07 12:16:55 51°19.97 2°37.073 234.9 0.1 315 21.2
2006-06-07 12:17:55 51°19.97 2°37.073 233.8 0.1 317 21.1
2006-06-07 12:18:54 51°19.97 2°37.074 232.9 -999 18 21.1
2006-06-07 12:19:55 51°19.971 2°37.073 231.9 -999 65 21
2006-06-07 12:20:55 51°19.971 2°37.073 230 -999 296 20.9
2006-06-07 12:21:55 51°19.971 2°37.073 227.8 0.1 299 20.9
2006-06-07 12:22:55 51°19.971 2°37.072 224.9 -999 213 21
2006-06-07 12:23:55 51°19.97 2°37.072 223.6 0.1 211 21.1
2006-06-07 12:24:53 51°19.969 2°37.071 223 0.1 200 21.3
2006-06-07 12:25:55 51°19.968 2°37.07 223.5 0.1 204 21.5
2006-06-07 12:26:55 51°19.968 2°37.069 223.3 0.1 225 21.8
2006-06-07 12:27:55 51°19.967 2°37.069 222 -999 155 21.9
2006-06-07 12:28:55 51°19.967 2°37.069 221.3 -999 167 21.9
2006-06-07 12:29:55 51°19.967 2°37.07 221.8 -999 76 21.9
2006-06-07 12:30:55 51°19.967 2°37.07 222.8 -999 44 21.8
2006-06-07 12:31:55 51°19.968 2°37.07 223.1 -999 41 21.7
2006-06-07 12:32:55 51°19.968 2°37.071 223.2 0.1 302 21.5
2006-06-07 12:33:55 51°19.968 2°37.071 223.7 -999 127 21.5
2006-06-07 12:34:55 51°19.968 2°37.07 225.5 0.1 276 21.6
2006-06-07 12:35:55 51°19.968 2°37.068 227.1 0.1 298 21.7
2006-06-07 12:36:55 51°19.969 2°37.067 226.5 0.2 306 21.7
2006-06-07 12:37:55 51°19.969 2°37.066 224.4 0.2 296 21.8
2006-06-07 12:38:55 51°19.969 2°37.065 221.5 0.1 275 21.9
2006-06-07 12:39:55 51°19.969 2°37.066 217.8 -999 165 21.9
2006-06-07 12:40:55 51°19.969 2°37.066 213.7 -999 254 21.8
2006-06-07 12:41:55 51°19.968 2°37.065 210.9 -999 167 21.9
2006-06-07 12:42:55 51°19.968 2°37.064 209.4 0.1 186 21.8
2006-06-07 12:43:55 51°19.967 2°37.063 209.2 0.1 257 21.6
2006-06-07 12:44:55 51°19.965 2°37.062 208.9 0.2 230 21.9
2006-06-07 12:45:55 51°19.964 2°37.06 209.9 0.1 238 22
2006-06-07 12:46:55 51°19.961 2°37.058 210.6 0.4 222 22.3
2006-06-07 12:47:55 51°19.953 2°37.048 211.3 0.6 218 21.7
2006-06-07 12:48:55 51°19.953 2°37.044 217.8 0.3 16 21.7
2006-06-07 12:49:55 51°19.962 2°37.053 221.3 0.8 38 21.9
2006-06-07 12:50:55 51°19.972 2°37.064 218.7 0.6 31 21.4
2006-06-07 12:51:55 51°19.981 2°37.071 213.5 0.5 31 20.1
2006-06-07 12:52:55 51°19.986 2°37.075 207.8 0.3 18 20.7
2006-06-07 12:53:55 51°19.99 2°37.076 204 0.2 15 20.6
2006-06-07 12:54:55 51°19.984 2°37.072 197.1 1.9 191 20.8
2006-06-07 12:55:54 51°19.913 2°37.124 139 7.8 136 22.2
2006-06-07 12:56:55 51°19.779 2°37.326 131.7 12.4 129 21.8
2006-06-07 12:57:53 51°19.661 2°37.59 128.4 12.7 128 21.5
2006-06-07 12:58:55 51°19.53 2°37.866 127.7 12.5 126 21.6
2006-06-07 12:59:55 51°19.403 2°38.131 129.1 12.5 126 22.9
2006-06-07 13:00:55 51°19.276 2°38.397 128.9 12.7 125 25.1
2006-06-07 13:01:55 51°19.16 2°38.678 124.4 12.7 124 27.6
2006-06-07 13:02:55 51°19.046 2°38.963 124.1 12.7 123 27.9
2006-06-07 13:03:55 51°18.932 2°39.248 123.7 12.8 122 26.1
2006-06-07 13:04:55 51°18.825 2°39.546 124.6 13 120 24.6
2006-06-07 13:05:55 51°18.714 2°39.84 125.2 13 121 23.9
2006-06-07 13:06:55 51°18.601 2°40.134 124.9 12.9 122 23.7
2006-06-07 13:07:55 51°18.484 2°40.415 126 12.2 124 15.2
2006-06-07 13:08:53 51°18.374 2°40.684 125 12.6 124 19.8
2006-06-07 13:09:55 51°18.251 2°40.968 126.2 12.5 124 17.7
2006-06-07 13:10:55 51°18.136 2°41.247 124.1 12.6 123 19.8
2006-06-07 13:11:55 51°18.019 2°41.526 122.8 12.7 121 22.8
2006-06-07 13:12:55 51°17.912 2°41.814 122 12.6 120 23.8
2006-06-07 13:13:55 51°17.804 2°42.101 124.2 12.6 121 23.9
2006-06-07 13:14:55 51°17.696 2°42.386 123.1 12.5 122 23.2
2006-06-07 13:15:55 51°17.586 2°42.67 124.6 12.6 121 21
2006-06-07 13:16:55 51°17.473 2°42.948 124.1 12.3 122 10.2
2006-06-07 13:17:55 51°17.363 2°43.221 122.8 12.1 124 11.8
2006-06-07 13:18:55 51°17.249 2°43.494 124.9 12.6 123 14.6
2006-06-07 13:19:55 51°17.139 2°43.776 123.8 12.5 125 14.7
2006-06-07 13:20:53 51°17.031 2°44.047 122.3 12.7 122 14.9
2006-06-07 13:21:55 51°16.914 2°44.334 122.9 12.6 124 15.3
2006-06-07 13:22:55 51°16.801 2°44.612 123.1 12.4 123 13.5
2006-06-07 13:23:55 51°16.69 2°44.891 125.5 12.5 123 11.3
2006-06-07 13:24:55 51°16.579 2°45.167 123.1 12.6 122 11.5
2006-06-07 13:25:55 51°16.469 2°45.447 120.7 12.4 119 10.4
2006-06-07 13:26:53 51°16.377 2°45.733 121.2 12.4 118 9.9
2006-06-07 13:27:55 51°16.271 2°46.032 123.7 12.6 124 9.7
2006-06-07 13:28:55 51°16.182 2°46.33 108.6 12.6 103 11.3
2006-06-07 13:29:55 51°16.133 2°46.655 106.2 12.8 104 13
2006-06-07 13:30:55 51°16.079 2°46.98 105.2 12.7 105 14.6
2006-06-07 13:31:55 51°16.025 2°47.305 106.6 12.7 106 16
2006-06-07 13:32:55 51°15.968 2°47.627 106.6 12.5 107 15.6
2006-06-07 13:33:55 51°15.917 2°47.946 105.2 12.3 104 14.7
2006-06-07 13:34:55 51°15.86 2°48.258 105.3 12.1 105 13.3
2006-06-07 13:35:55 51°15.805 2°48.568 105.6 12.1 103 11.5
2006-06-07 13:36:55 51°15.754 2°48.881 104.7 12.1 106 10.6
2006-06-07 13:37:55 51°15.696 2°49.191 108.1 12.3 108 10.3
2006-06-07 13:38:55 51°15.64 2°49.501 105.7 12.3 105 11.9
2006-06-07 13:39:54 51°15.585 2°49.807 108.3 12.2 107 12.8
2006-06-07 13:40:55 51°15.527 2°50.121 106.7 12.1 106 12.5
2006-06-07 13:41:55 51°15.477 2°50.435 103.9 12.2 105 12.4
2006-06-07 13:42:55 51°15.417 2°50.744 106.1 12.2 106 12.4
2006-06-07 13:43:55 51°15.362 2°51.054 108.6 12.2 106 12.2
2006-06-07 13:44:55 51°15.304 2°51.363 106.7 12.1 109 12.1
2006-06-07 13:45:55 51°15.246 2°51.671 104.7 12.1 106 11.6
2006-06-07 13:46:55 51°15.186 2°51.98 107.4 12.3 108 11.1
2006-06-07 13:47:54 51°15.129 2°52.284 105.1 11.9 106 10.5
2006-06-07 13:48:55 51°15.066 2°52.593 108.1 12.1 109 10.2
2006-06-07 13:49:55 51°15.008 2°52.899 104.5 12 106 10
2006-06-07 13:50:55 51°14.946 2°53.202 106.4 11.9 106 9.7
2006-06-07 13:51:55 51°14.882 2°53.505 107.6 12 109 9.2
2006-06-07 13:52:55 51°14.821 2°53.81 106.9 12.1 105 9.1
2006-06-07 13:53:55 51°14.755 2°54.11 115 11.9 118 9.2
2006-06-07 13:54:55 51°14.651 2°54.366 121.2 11.4 122 9.5
2006-06-07 13:55:55 51°14.544 2°54.618 121.3 11.4 122 9.7
2006-06-07 13:56:55 51°14.437 2°54.867 121.3 11.3 122 10.3
2006-06-07 13:57:55 51°14.339 2°55.112 124.1 10.9 124 9.9
2006-06-07 13:58:55 51°14.235 2°55.311 136.2 8.9 135 10.2
2006-06-07 13:59:55 51°14.128 2°55.431 155 7.1 153 10.2
2006-06-07 14:00:55 51°14.025 2°55.494 158.8 6.5 158 10.2
2006-06-07 14:01:54 51°13.921 2°55.572 158.3 7.4 156 10.2
2006-06-07 14:02:56 51°13.807 2°55.657 155.4 7 153 10.1
2006-06-07 14:03:56 51°13.719 2°55.754 136.5 5.8 134 11.3
2006-06-07 14:04:56 51°13.667 2°55.866 125.6 4.9 124 8.9
2006-06-07 14:05:54 51°13.637 2°55.959 114.6 3.7 112 8.8
2006-06-07 14:06:56 51°13.615 2°56.045 113.8 3.1 111 7.9
2006-06-07 14:07:56 51°13.604 2°56.092 118.5 0.4 119 5.2